createdAt,value
2023-01-11T00:00:04.514Z,102399.91
2023-01-11T00:05:41.577Z,102401.31
2023-01-11T00:11:11.935Z,102400.03
2023-01-11T00:16:34.333Z,102378.59
2023-01-11T00:21:56.882Z,102355.47
2023-01-11T00:27:22.446Z,102355.56
2023-01-11T00:32:45.137Z,102374.16
2023-01-11T00:38:33.705Z,102367.44
2023-01-11T00:44:21.060Z,102347.84
2023-01-11T00:49:46.046Z,102336.25
2023-01-11T00:55:08.765Z,102346.81
2023-01-11T01:00:40.728Z,102333.00
2023-01-11T01:06:03.088Z,102332.97
2023-01-11T01:11:25.704Z,102325.75
2023-01-11T01:16:48.567Z,102328.34
2023-01-11T01:22:10.351Z,102319.94
2023-01-11T01:27:32.500Z,102309.72
2023-01-11T01:32:54.196Z,102296.38
2023-01-11T01:38:17.044Z,102322.53
2023-01-11T01:44:23.523Z,102305.59
2023-01-11T01:49:46.445Z,102291.91
2023-01-11T01:55:13.582Z,102291.31
2023-01-11T02:00:35.641Z,102306.28
2023-01-11T02:06:00.099Z,102289.16
2023-01-11T02:11:32.913Z,102282.22
2023-01-11T02:17:00.362Z,102280.34
2023-01-11T02:22:40.476Z,102291.56
2023-01-11T02:28:26.362Z,102300.81
2023-01-11T02:34:06.575Z,102273.56
2023-01-11T02:39:44.621Z,102282.09
2023-01-11T02:46:00.081Z,102294.81
2023-01-11T02:51:40.975Z,102271.59
2023-01-11T02:57:10.512Z,102247.75
2023-01-11T03:02:34.605Z,102240.50
2023-01-11T03:08:11.368Z,102257.94
2023-01-11T03:13:51.962Z,102282.63
2023-01-11T03:19:47.162Z,102278.13
2023-01-11T03:25:25.408Z,102240.22
2023-01-11T03:31:02.161Z,102231.81
2023-01-11T03:36:33.513Z,102238.22
2023-01-11T03:41:59.152Z,102264.88
2023-01-11T03:47:26.575Z,102220.09
2023-01-11T03:52:48.753Z,102255.34
2023-01-11T03:58:11.298Z,102247.69
2023-01-11T04:03:33.545Z,102256.19
2023-01-11T04:09:02.470Z,102246.66
2023-01-11T04:14:39.623Z,102254.50
2023-01-11T04:20:06.807Z,102234.56
2023-01-11T04:25:37.204Z,102246.97
2023-01-11T04:31:26.129Z,102212.28
2023-01-11T04:36:56.400Z,102218.88
2023-01-11T04:42:24.203Z,102177.03
2023-01-11T04:48:09.327Z,102207.44
2023-01-11T04:53:42.218Z,102185.72
2023-01-11T04:59:22.500Z,102221.75
2023-01-11T05:05:05.309Z,102202.47
2023-01-11T05:10:30.321Z,102179.38
2023-01-11T05:15:52.731Z,102172.22
2023-01-11T05:21:19.521Z,102165.94
2023-01-11T05:26:43.691Z,102170.09
2023-01-11T05:32:08.433Z,102187.72
2023-01-11T05:37:30.944Z,102200.56
2023-01-11T05:42:53.084Z,102163.56
2023-01-11T05:48:15.573Z,102131.75
2023-01-11T05:53:37.717Z,102137.09
2023-01-11T05:59:04.575Z,102181.69
2023-01-11T06:04:28.045Z,102115.31
2023-01-11T06:09:49.957Z,102143.28
2023-01-11T06:15:12.473Z,102171.94
2023-01-11T06:20:35.035Z,102120.66
2023-01-11T06:25:57.685Z,102112.22
2023-01-11T06:31:20.962Z,102106.41
2023-01-11T06:36:43.295Z,102101.13
2023-01-11T06:42:08.087Z,102121.25
2023-01-11T06:47:30.273Z,102128.66
2023-01-11T06:52:57.000Z,102113.09
2023-01-11T06:58:18.847Z,102139.84
2023-01-11T07:03:42.289Z,102091.00
2023-01-11T07:09:15.619Z,102135.81
2023-01-11T07:14:42.126Z,102131.97
2023-01-11T07:20:23.292Z,102116.00
2023-01-11T07:26:04.071Z,102101.91
2023-01-11T07:31:42.808Z,102116.88
2023-01-11T07:37:28.527Z,102105.69
2023-01-11T07:43:25.336Z,102118.38
2023-01-11T07:48:50.583Z,102120.25
2023-01-11T07:54:16.219Z,102106.59
2023-01-11T07:59:46.623Z,102118.59
2023-01-11T08:05:21.889Z,102108.41
2023-01-11T08:11:13.726Z,102098.94
2023-01-11T08:16:44.954Z,102101.53
2023-01-11T08:22:19.785Z,102092.84
2023-01-11T08:28:01.953Z,102092.91
2023-01-11T08:33:36.365Z,102066.38
2023-01-11T08:39:16.304Z,102085.91
2023-01-11T08:44:46.345Z,102079.25
2023-01-11T08:50:18.810Z,102064.75
2023-01-11T08:56:04.742Z,102061.81
2023-01-11T09:01:41.605Z,102073.44
2023-01-11T09:07:07.722Z,102075.78
2023-01-11T09:12:29.795Z,102064.81
2023-01-11T09:17:53.409Z,102071.91
2023-01-11T09:23:15.465Z,102043.97
2023-01-11T09:28:37.474Z,102041.28
2023-01-11T09:33:59.615Z,102017.38
2023-01-11T09:39:24.963Z,102031.56
2023-01-11T09:45:05.975Z,101993.59
2023-01-11T09:50:33.514Z,101972.66
2023-01-11T09:56:00.086Z,101985.19
2023-01-11T10:01:38.855Z,102013.41
2023-01-11T10:07:17.785Z,102001.19
2023-01-11T10:26:00.286Z,101970.63
2023-01-11T10:31:51.278Z,101970.38
2023-01-11T10:37:44.763Z,101960.53
2023-01-11T10:43:17.608Z,101977.44
2023-01-11T10:48:45.866Z,101971.94
2023-01-11T11:01:04.739Z,101968.69
2023-01-11T11:07:03.612Z,101963.41
2023-01-11T11:12:31.684Z,101955.59
2023-01-11T11:17:55.231Z,101964.69
2023-01-11T11:23:26.019Z,101933.13
2023-01-11T11:29:09.202Z,101937.03
2023-01-11T11:34:31.504Z,101929.25
2023-01-11T11:39:54.705Z,101946.75
2023-01-11T11:45:17.908Z,101919.75
2023-01-11T11:50:45.229Z,101898.06
2023-01-11T11:56:22.341Z,101912.13
2023-01-11T12:01:47.797Z,101905.06
2023-01-11T12:07:31.521Z,101917.03
2023-01-11T12:13:04.721Z,101905.88
2023-01-11T12:18:37.008Z,101892.25
2023-01-11T12:24:39.678Z,101892.69
2023-01-11T12:30:22.208Z,101909.28
2023-01-11T12:36:24.262Z,101890.34
2023-01-11T12:42:20.205Z,101895.53
2023-01-11T12:48:34.765Z,101898.88
2023-01-11T12:54:30.804Z,101883.47
2023-01-11T13:00:17.829Z,101873.09
2023-01-11T13:12:17.156Z,101882.69
2023-01-11T13:18:14.695Z,101879.97
2023-01-11T13:23:53.827Z,101835.94
2023-01-11T13:29:28.282Z,101827.31
2023-01-11T13:34:56.294Z,101840.84
2023-01-11T13:40:34.629Z,101854.59
2023-01-11T13:46:06.528Z,101834.00
2023-01-11T13:51:38.341Z,101838.59
2023-01-11T13:57:07.796Z,101849.00
2023-01-11T14:02:43.177Z,101833.50
2023-01-11T14:08:04.719Z,101841.09
2023-01-11T14:14:05.762Z,101834.84
2023-01-11T14:20:04.816Z,101822.56
2023-01-11T14:25:45.402Z,101820.81
2023-01-11T14:31:32.294Z,101813.75
2023-01-11T14:37:18.671Z,101820.50
2023-01-11T14:43:13.532Z,101821.34
2023-01-11T14:48:49.142Z,101824.16
2023-01-11T14:54:34.802Z,101826.53
2023-01-11T14:59:56.692Z,101825.59
2023-01-11T15:05:33.388Z,101837.47
2023-01-11T15:11:05.847Z,101805.53
2023-01-11T15:17:14.983Z,101794.91
2023-01-11T15:22:37.891Z,101795.31
2023-01-11T15:28:04.217Z,101795.00
2023-01-11T15:33:26.106Z,101802.59
2023-01-11T15:39:03.618Z,101779.50
2023-01-11T15:44:49.684Z,101802.88
2023-01-11T15:50:49.374Z,101804.44
2023-01-11T15:56:29.803Z,101787.78
2023-01-11T16:01:54.273Z,101779.25
2023-01-11T16:07:50.065Z,101785.81
2023-01-11T16:13:20.927Z,101790.94
2023-01-11T16:18:53.019Z,101776.34
2023-01-11T16:24:21.581Z,101753.66
2023-01-11T16:29:50.813Z,101771.13
2023-01-11T16:35:25.667Z,101742.59
2023-01-11T16:40:53.826Z,101749.16
2023-01-11T16:46:53.963Z,101748.41
2023-01-11T16:52:28.059Z,101756.34
2023-01-11T16:57:54.318Z,101737.38
2023-01-11T17:03:46.180Z,101746.34
2023-01-11T17:09:16.329Z,101732.00
2023-01-11T17:15:06.451Z,101722.44
2023-01-11T17:20:31.079Z,101729.69
2023-01-11T17:25:58.302Z,101682.88
2023-01-11T17:31:40.498Z,101696.00
2023-01-11T17:37:11.125Z,101709.91
2023-01-11T17:42:54.631Z,101696.72
2023-01-11T17:48:22.027Z,101713.69
2023-01-11T17:53:52.805Z,101692.34
2023-01-11T17:59:17.406Z,101695.66
2023-01-11T18:04:42.285Z,101720.63
2023-01-11T18:10:30.489Z,101721.34
2023-01-11T18:15:52.844Z,101710.09
2023-01-11T18:21:26.695Z,101706.06
2023-01-11T18:26:50.860Z,101704.88
2023-01-11T18:32:14.831Z,101690.75
2023-01-11T18:37:38.113Z,101697.19
2023-01-11T18:43:00.111Z,101675.78
2023-01-11T18:48:22.404Z,101707.50
2023-01-11T18:53:44.487Z,101695.94
2023-01-11T18:59:06.463Z,101700.00
2023-01-11T19:04:28.382Z,101710.31
2023-01-11T19:09:51.099Z,101702.94
2023-01-11T19:15:17.321Z,101694.72
2023-01-11T19:20:43.610Z,101696.63
2023-01-11T19:26:26.252Z,101707.00
2023-01-11T19:32:02.485Z,101687.03
2023-01-11T19:37:37.453Z,101682.53
2023-01-11T19:43:07.715Z,101669.72
2023-01-11T19:48:35.635Z,101703.22
2023-01-11T19:53:59.841Z,101661.31
2023-01-11T19:59:32.433Z,101698.84
2023-01-11T20:04:57.668Z,101700.44
2023-01-11T20:10:24.782Z,101685.75
2023-01-11T20:15:53.329Z,101679.00
2023-01-11T20:21:16.132Z,101669.13
2023-01-11T20:26:41.389Z,101669.53
2023-01-11T20:32:27.865Z,101658.28
2023-01-11T20:37:52.474Z,101642.66
2023-01-11T20:43:30.569Z,101670.09
2023-01-11T20:48:59.680Z,101637.25
2023-01-11T20:54:30.344Z,101649.81
2023-01-11T21:00:00.174Z,101667.06
2023-01-11T21:06:13.607Z,101621.97
2023-01-11T21:16:59.314Z,101677.97
2023-01-11T21:22:21.662Z,101659.03
2023-01-11T21:27:43.550Z,101654.03
2023-01-11T21:33:05.823Z,101648.81
2023-01-11T21:38:27.491Z,101633.53
2023-01-11T21:43:53.003Z,101657.84
2023-01-11T21:49:15.964Z,101649.00
2023-01-11T21:54:38.299Z,101642.97
2023-01-11T22:00:00.532Z,101632.53
2023-01-11T22:05:24.279Z,101626.16
2023-01-11T22:11:00.259Z,101612.75
2023-01-11T22:16:22.480Z,101621.41
2023-01-11T22:21:45.320Z,101626.28
2023-01-11T22:27:07.822Z,101612.09
2023-01-11T22:32:32.993Z,101595.34
2023-01-11T22:37:54.721Z,101594.91
2023-01-11T22:43:16.599Z,101598.44
2023-01-11T22:48:38.914Z,101606.78
2023-01-11T22:54:00.780Z,101595.03
2023-01-11T22:59:22.471Z,101600.25
2023-01-11T23:04:44.548Z,101587.53
2023-01-11T23:10:09.062Z,101601.22
2023-01-11T23:15:31.400Z,101579.72
2023-01-11T23:20:53.746Z,101579.50
2023-01-11T23:26:18.722Z,101606.22
2023-01-11T23:31:40.645Z,101580.00
2023-01-11T23:37:02.434Z,101592.44
2023-01-11T23:42:27.573Z,101586.41
2023-01-11T23:47:50.083Z,101586.69
2023-01-11T23:53:12.013Z,101548.97
2023-01-11T23:58:34.041Z,101541.03
